Pulteney, New York
Current Conditions -  °F | °C
As of 8:53 PM on Saturday 22 Nov 2014 (Local Time) from KPEO Reporting Station
Light Rain Light Rain  
Wind Chill: 34°   Ceiling: 2500
Heat Index: 42°   Visibility: 10mi
Dew Point: 36°   Wind: 16mph
Humidity: 79%   Direction: 200°SSW
Pressure: 30.01"   Gusts: NA
Location:  42.52°N, 77.17°W
Report Text: KPEO 230153Z AUTO 20014KT 10SM -RA BKN025 BKN070 OVC110 06/02 A3001 RMK AO2 RAE18B43 SLP171 P0000 T00560022
Loading
Personal Weather Stations






























Interactive Weather Map New forecast layout! Learn more

10-Day Weather Forecast

Advertisements
Track Severe Weather on mobile